• Join FlightAware (Why Join?)
  • Login
  • US Flag 
02:24PM EST


 

Airport Tracker/Info


-or-


 

Live Flight TrackerFlight Track Log ✈ N240JK ✈ 10-Oct-2013 ✈ KPIE - KUES

Flight Track Log - Related Links

Times and Time Zones

All times are in EDT time to prevent confusion due to time zone crossing. See the N240JK flight status page for this flight to view local times or setup timezone preferences in your user account.

Time Position Orientation Groundspeed Altitude Reporting Facility
EDT Latitude Longitude Course Direction KTS MPH feet Rate Location/Type
06:04PM 27.9667 -82.7000 344° North 198 228 2,700  Level Tampa TRACON
06:05PM 28.0333 -82.7333 336° Northwest 252 290 5,800 2,802 Climbing Tampa TRACON
06:07PM 28.6085 -82.9017 351° North  Level Estimated
06:08PM 28.7083 -82.9325 350° North  Level Estimated
06:08PM 28.1519 -82.8456 320° Northwest 256 295 11,900  Level Jacksonville Center
06:09PM 28.8080 -82.9634 346° North  Level Estimated
06:09PM 28.2481 -82.8456 360° North 294 338 12,900  Level Jacksonville Center
06:10PM 28.3503 -82.8594 353° North 331 381 15,900 2,950 Climbing Jacksonville Center
06:11PM 28.4567 -82.8761 352° North 365 420 18,800 2,777 Climbing Jacksonville Center
06:12PM 28.5631 -82.8903 353° North 377 434 21,500 2,600 Climbing Jacksonville Center
06:13PM 28.6694 -82.9067 352° North 383 441 24,000 2,521 Climbing Jacksonville Center
06:14PM 28.7886 -82.9233 353° North 388 447 26,500 2,350 Climbing Jacksonville Center
06:15PM 28.8992 -82.9425 351° North 388 447 28,700 1,750 Climbing Jacksonville Center
06:16PM 29.0119 -82.9567 354° North 393 452 30,000 650 Climbing Jacksonville Center
06:17PM 29.1267 -82.9758 352° North 403 464 30,000  Level Jacksonville Center
06:18PM 29.2436 -82.9925 353° North 409 471 30,000  Level Jacksonville Center
06:19PM 29.3583 -83.0117 352° North 414 476 30,000 958 Level Jacksonville Center
06:20PM 29.4689 -83.0525 342° North 414 476 31,900 1,800 Climbing Jacksonville Center
06:21PM 29.5711 -83.0908 342° North 414 476 33,600 1,850 Climbing Jacksonville Center
06:22PM 29.6775 -83.1292 343° North 414 476 35,600 2,017 Climbing Jacksonville Center
06:23PM 29.7861 -83.1703 342° North 414 476 37,600 1,950 Climbing Jacksonville Center
06:24PM 29.8903 -83.2089 342° North 400 460 39,500 1,200 Climbing Jacksonville Center
06:25PM 29.9883 -83.2475 341° North 383 441 40,000 250 Climbing Jacksonville Center
06:26PM 30.0947 -83.2864 342° North 383 441 40,000  Level Jacksonville Center
06:27PM 30.1947 -83.3253 341° North 383 441 40,000  Level Jacksonville Center
06:28PM 30.2950 -83.3642 341° North 383 441 40,000  Level Jacksonville Center
06:29PM 30.3950 -83.4008 342° North 383 441 40,000  Level Jacksonville Center
06:30PM 30.4950 -83.4397 341° North 383 441 40,000  Level Jacksonville Center
06:31PM 30.5972 -83.4789 342° North 383 441 40,000  Level Jacksonville Center
06:32PM 30.6950 -83.5158 342° North 383 441 40,000  Level Jacksonville Center
06:33PM 30.7972 -83.5553 342° North 383 441 40,000  Level Jacksonville Center
06:34PM 30.9036 -83.5972 341° North 377 434 40,000  Level Jacksonville Center
06:35PM 31.0033 -83.6367 341° North 377 434 40,000  Level Jacksonville Center
06:36PM 31.1033 -83.6764 341° North 377 434 40,000  Level Jacksonville Center
06:37PM 31.2056 -83.7161 342° North 377 434 40,000  Level Jacksonville Center
06:38PM 31.3706 -83.7811 341° North 383 441 40,000  Level Atlanta Center
06:39PM 31.4708 -83.8222 341° North 383 441 40,000  Level Atlanta Center
06:40PM 31.5711 -83.8633 341° North 383 441 40,000  Level Atlanta Center
06:41PM 31.6547 -83.8950 342° North 388 447 40,000  Level Atlanta Center
06:42PM 31.7694 -83.9411 341° North 388 447 40,000  Level Atlanta Center
06:43PM 31.8719 -83.9778 343° North 388 447 40,000  Level Atlanta Center
06:44PM 31.9719 -84.0167 342° North 382 440 40,000  Level Atlanta Center
06:45PM 32.0742 -84.0561 342° North 382 440 40,000  Level Atlanta Center
06:46PM 32.1767 -84.0978 341° North 382 440 40,000  Level Atlanta Center
06:47PM 32.2767 -84.1372 342° North 382 440 40,000  Level Atlanta Center
06:48PM 32.3769 -84.1767 342° North 382 440 40,000  Level Atlanta Center
06:49PM 32.4769 -84.2186 341° North 382 440 40,000  Level Atlanta Center
06:50PM 32.5792 -84.2583 342° North 382 440 40,000  Level Atlanta Center
06:51PM 32.6814 -84.3006 341° North 382 440 40,000  Level Atlanta Center
06:52PM 32.7836 -84.3403 342° North 382 440 40,000  Level Atlanta Center
06:53PM 32.8817 -84.3850 339° North 382 440 40,000  Level Atlanta Center
06:54PM 32.9942 -84.4278 342° North 382 440 40,000  Level Atlanta Center
06:55PM 33.0922 -84.4703 340° North 387 445 40,000  Level Atlanta Center
06:56PM 33.1983 -84.5106 342° North 387 445 40,000  Level Atlanta Center
06:57PM 33.2986 -84.5533 340° North 387 445 40,000  Level Atlanta Center
06:58PM 33.4028 -84.5961 341° North 382 440 40,000  Level Atlanta Center
06:59PM 33.5047 -84.6367 342° North 387 445 40,000  Level Atlanta Center
07:00PM 33.6069 -84.6772 342° North 387 445 40,000  Level Atlanta Center
07:01PM 33.7131 -84.7181 342° North 387 445 40,000  Level Atlanta Center
07:02PM 33.8150 -84.7564 343° North 387 445 40,000  Level Atlanta Center
07:03PM 33.9172 -84.8022 340° North 387 445 40,000  Level Atlanta Center
07:04PM 34.0150 -84.8458 340° North 393 452 40,000  Level Atlanta Center
07:05PM 34.1294 -84.8919 342° North 393 452 40,000  Level Atlanta Center
07:06PM 34.2314 -84.9333 341° North 387 445 40,000  Level Atlanta Center
07:07PM 34.3333 -84.9769 341° North 387 445 40,000  Level Atlanta Center
07:08PM 34.4353 -85.0186 341° North 381 438 40,000  Level Atlanta Center
07:09PM 34.5350 -85.0600 341° North 381 438 40,000  Level Atlanta Center
07:10PM 34.6350 -85.1017 341° North 381 438 40,000  Level Atlanta Center
07:11PM 34.7203 -85.1381 341° North 376 433 40,000  Level Atlanta Center
07:12PM 34.8200 -85.1825 340° North 371 427 40,000  Level Atlanta Center
07:13PM 34.9197 -85.2244 341° North 371 427 40,000  Level Atlanta Center
07:14PM 35.0217 -85.2664 341° North 371 427 40,000  Level Atlanta Center
07:15PM 35.1233 -85.3111 340° North 377 434 40,000  Level Atlanta Center
07:17PM 35.3083 -85.3881 341° North 392 451 40,000  Level Memphis Center
07:18PM 35.4103 -85.4328 340° North 392 451 40,000  Level Memphis Center
07:19PM 35.5100 -85.4781 340° North 392 451 40,000  Level Memphis Center
07:20PM 35.6158 -85.5203 342° North 392 451 40,000  Level Memphis Center
07:21PM 35.7178 -85.5656 340° North 392 451 40,000  Level Memphis Center
07:22PM 35.8217 -85.6131 340° North 392 451 40,000  Level Memphis Center
07:23PM 35.9256 -85.6583 341° North 392 451 40,000  Level Memphis Center
07:24PM 36.0294 -85.7036 341° North 392 451 40,000  Level Memphis Center
07:25PM 36.1333 -85.7492 340° North 392 451 40,000  Level Memphis Center
07:26PM 36.2394 -85.7972 340° North 392 451 40,000  Level Memphis Center
07:26PM 36.2839 -85.8117 345° North 399 459 40,000  Level Indianapolis Center
07:28PM 36.4058 -85.8658 340° North 401 461 40,000  Level Indianapolis Center
07:29PM 36.5136 -85.9119 341° North 406 467 40,000  Level Indianapolis Center
07:30PM 36.6194 -85.9592 340° North 404 465 40,000  Level Indianapolis Center
07:31PM 36.7258 -86.0067 340° North 403 464 40,000  Level Indianapolis Center
07:32PM 36.8317 -86.0547 340° North 403 464 40,000  Level Indianapolis Center
07:33PM 36.9392 -86.1022 341° North 406 467 40,000  Level Indianapolis Center
07:34PM 37.0636 -86.1578 340° North 406 467 40,000  Level Indianapolis Center
07:35PM 37.1703 -86.2056 340° North 404 465 40,000  Level Indianapolis Center
07:36PM 37.2775 -86.2528 341° North 406 467 40,000  Level Indianapolis Center
07:37PM 37.3853 -86.3039 339° North 409 471 40,000  Level Indianapolis Center
07:38PM 37.4931 -86.3503 341° North 407 468 40,000  Level Indianapolis Center
07:39PM 37.6014 -86.4006 340° North 409 471 40,000  Level Indianapolis Center
07:40PM 37.7094 -86.4494 340° North 409 471 40,000  Level Indianapolis Center
07:41PM 37.8231 -86.5036 339° North 412 474 40,000  Level Indianapolis Center
07:42PM 37.9314 -86.5539 340° North 415 478 40,000  Level Indianapolis Center
07:43PM 38.0392 -86.6031 340° North 412 474 40,000  Level Indianapolis Center
07:44PM 38.1686 -86.6628 340° North 413 475 40,000  Level Indianapolis Center
07:45PM 38.2761 -86.7133 340° North 414 476 40,000  Level Indianapolis Center
07:46PM 38.3833 -86.7628 340° North 414 476 40,000  Level Indianapolis Center
07:47PM 38.4900 -86.8136 340° North 414 476 40,000  Level Indianapolis Center
07:48PM 38.5975 -86.8636 340° North 414 476 40,000  Level Indianapolis Center
07:49PM 38.7047 -86.9147 340° North 413 475 40,000  Level Indianapolis Center
07:50PM 38.8344 -86.9764 340° North 415 478 40,000  Level Indianapolis Center
07:51PM 38.9422 -87.0281 340° North 415 478 40,000  Level Indianapolis Center
07:52PM 39.0514 -87.0808 339° North 417 480 40,000  Level Indianapolis Center
07:53PM 39.1664 -87.1356 340° North 416 479 40,000  Level Indianapolis Center
07:54PM 39.2761 -87.1872 340° North 418 481 40,000  Level Indianapolis Center
07:55PM 39.3850 -87.2403 339° North 418 481 40,000  Level Indianapolis Center
07:56PM 39.4939 -87.2925 340° North 416 479 40,000  Level Indianapolis Center
07:57PM 39.6014 -87.3442 340° North 413 475 40,000  Level Indianapolis Center
07:58PM 39.7089 -87.3961 340° North 412 474 40,000  Level Indianapolis Center
07:59PM 39.8156 -87.4486 339° North 410 472 40,000  Level Indianapolis Center
08:00PM 39.9222 -87.5003 340° North 409 471 40,000  Level Indianapolis Center
08:01PM 40.0500 -87.5625 340° North 408 470 40,000  Level Indianapolis Center
08:03PM 40.1561 -87.6153 339° North 407 468 40,000  Level Indianapolis Center
08:04PM 40.2625 -87.6686 339° North 407 468 40,000 -100 Level Indianapolis Center
08:05PM 40.3733 -87.7239 339° North 410 472 39,800 -600 Descending Chicago Center
08:06PM 40.4797 -87.7781 339° North 413 475 38,800 -1,065 Descending Chicago Center
08:07PM 40.5861 -87.8353 338° Northwest 415 478 37,600 -1,210 Descending Chicago Center
08:08PM 40.6956 -87.8867 340° North 420 483 36,300 -1,258 Descending Chicago Center
08:09PM 40.8022 -87.9403 339° North 417 480 35,000 -1,403 Descending Chicago Center
08:10PM 40.9283 -88.0053 339° North 418 481 33,400 -1,403 Descending Chicago Center
08:11PM 41.0447 -88.0606 340° North 426 490 32,100 -1,065 Descending Chicago Center
08:12PM 41.1603 -88.1194 339° North 440 506 31,200 -1,008 Descending Chicago Center
08:13PM 41.2811 -88.1814 339° North 459 528 30,000 -624 Descending Chicago Center
08:14PM 41.4028 -88.2431 339° North 459 528 29,900 -1,113 Descending Chicago Center
08:15PM 41.5206 -88.3053 338° Northwest 452 520 27,700 -2,226 Descending Chicago Center
08:16PM 41.6400 -88.3164 356° North 442 509 25,300 -1,984 Descending Chicago Center
08:17PM 41.7575 -88.3153 360° North 422 486 23,600 -1,742 Descending Chicago Center
08:18PM 41.8881 -88.3131 North 393 452 21,700 -1,645 Descending Chicago Center
08:19PM 41.9928 -88.3119 360° North 376 433 20,200 -1,500 Descending Chicago Center
08:20PM 42.0928 -88.3119 360° North 363 418 18,600 -1,500 Descending Chicago Center
08:21PM 42.1897 -88.3117 360° North 354 407 17,100 -823 Descending Chicago Center
08:22PM 42.2833 -88.3100 North 342 394 16,900 -919 Descending Chicago Center
08:23PM 42.3925 -88.3083 North 334 384 15,200 -1,824 Descending Chicago Center
08:24PM 42.4836 -88.3069 North 329 379 13,100 -1,968 Descending Chicago Center
08:25PM 42.5722 -88.3072 360° North 322 371 11,100 -1,984 Descending Chicago Center
08:26PM 42.6561 -88.3083 359° North 310 357 9,000 -1,984 Descending Chicago Center
08:27PM 42.7344 -88.3097 359° North 292 336 7,000 -1,500 Descending Chicago Center
08:28PM 42.8039 -88.3419 341° North 269 310 5,900 -1,210 Descending Chicago Center
08:29PM 42.8736 -88.3733 342° North 227 261 4,500 -1,403 Descending Chicago Center
08:30PM 42.9333 -88.3997 342° North 225 259 3,000 -1,016 Descending Chicago Center
08:31PM 42.9858 -88.4044 356° North 210 242 2,400 -387 Descending Chicago Center
08:32PM 43.0228 -88.3642 39° Northeast 187 215 2,200 -192 Descending Chicago Center
08:33PM 43.0411 -88.3150 63° Northeast 176 203 2,000 -480 Descending Chicago Center
08:35PM 43.0458 -88.2669 82° East 147 169 1,200 -774 Descending Chicago Center
08:37PM 43.0333 -88.2333 68° East  Level FlightAware Approximate